sensor_id;sensor_type;location;lat;lon;timestamp;P1;durP1;ratioP1;P2;durP2;ratioP2
3177;SDS011;38141;42.666;23.344;2023-12-22T00:00:21;38.07;;;23.33;;
3177;SDS011;38141;42.666;23.344;2023-12-22T00:02:48;45.70;;;24.93;;
3177;SDS011;38141;42.666;23.344;2023-12-22T00:05:16;44.40;;;24.40;;
3177;SDS011;38141;42.666;23.344;2023-12-22T00:07:43;42.10;;;23.20;;
3177;SDS011;38141;42.666;23.344;2023-12-22T00:10:10;46.13;;;26.10;;
3177;SDS011;38141;42.666;23.344;2023-12-22T00:12:37;44.93;;;26.30;;
3177;SDS011;38141;42.666;23.344;2023-12-22T00:15:04;45.90;;;26.10;;
3177;SDS011;38141;42.666;23.344;2023-12-22T00:17:32;53.03;;;27.00;;
3177;SDS011;38141;42.666;23.344;2023-12-22T00:19:59;54.00;;;29.07;;
3177;SDS011;38141;42.666;23.344;2023-12-22T00:22:29;50.07;;;26.37;;
3177;SDS011;38141;42.666;23.344;2023-12-22T00:24:56;43.80;;;24.33;;
3177;SDS011;38141;42.666;23.344;2023-12-22T00:27:23;41.33;;;23.50;;
3177;SDS011;38141;42.666;23.344;2023-12-22T00:29:50;43.93;;;25.67;;
3177;SDS011;38141;42.666;23.344;2023-12-22T00:32:17;38.47;;;22.60;;
3177;SDS011;38141;42.666;23.344;2023-12-22T00:34:44;37.87;;;22.37;;
3177;SDS011;38141;42.666;23.344;2023-12-22T00:37:11;41.93;;;21.97;;
3177;SDS011;38141;42.666;23.344;2023-12-22T00:39:40;37.37;;;22.00;;
3177;SDS011;38141;42.666;23.344;2023-12-22T00:42:07;40.10;;;21.33;;
3177;SDS011;38141;42.666;23.344;2023-12-22T00:44:33;33.00;;;19.00;;
3177;SDS011;38141;42.666;23.344;2023-12-22T00:47:00;33.70;;;18.53;;
3177;SDS011;38141;42.666;23.344;2023-12-22T00:49:27;30.53;;;17.97;;
3177;SDS011;38141;42.666;23.344;2023-12-22T00:51:54;39.87;;;19.10;;
3177;SDS011;38141;42.666;23.344;2023-12-22T00:54:21;34.23;;;17.30;;
3177;SDS011;38141;42.666;23.344;2023-12-22T00:56:50;32.60;;;18.17;;
3177;SDS011;38141;42.666;23.344;2023-12-22T00:59:17;29.80;;;17.77;;
3177;SDS011;38141;42.666;23.344;2023-12-22T01:01:44;37.70;;;18.40;;
3177;SDS011;38141;42.666;23.344;2023-12-22T01:04:11;32.50;;;18.20;;
3177;SDS011;38141;42.666;23.344;2023-12-22T01:06:38;30.90;;;19.40;;
3177;SDS011;38141;42.666;23.344;2023-12-22T01:09:05;40.63;;;19.23;;
3177;SDS011;38141;42.666;23.344;2023-12-22T01:11:32;36.70;;;19.53;;
3177;SDS011;38141;42.666;23.344;2023-12-22T01:14:01;32.57;;;20.10;;
3177;SDS011;38141;42.666;23.344;2023-12-22T01:16:28;35.93;;;19.70;;
3177;SDS011;38141;42.666;23.344;2023-12-22T01:18:54;32.73;;;18.37;;
3177;SDS011;38141;42.666;23.344;2023-12-22T01:21:21;32.70;;;19.17;;
3177;SDS011;38141;42.666;23.344;2023-12-22T01:23:48;33.30;;;19.57;;
3177;SDS011;38141;42.666;23.344;2023-12-22T01:26:15;31.77;;;18.70;;
3177;SDS011;38141;42.666;23.344;2023-12-22T01:28:42;33.30;;;19.47;;
3177;SDS011;38141;42.666;23.344;2023-12-22T01:31:11;31.80;;;17.93;;
3177;SDS011;38141;42.666;23.344;2023-12-22T01:33:38;33.00;;;18.17;;
3177;SDS011;38141;42.666;23.344;2023-12-22T01:36:05;40.37;;;19.17;;
3177;SDS011;38141;42.666;23.344;2023-12-22T01:38:32;32.07;;;18.50;;
3177;SDS011;38141;42.666;23.344;2023-12-22T01:40:59;29.97;;;18.50;;
3177;SDS011;38141;42.666;23.344;2023-12-22T01:43:26;28.23;;;17.97;;
3177;SDS011;38141;42.666;23.344;2023-12-22T01:45:55;32.50;;;17.20;;
3177;SDS011;38141;42.666;23.344;2023-12-22T01:48:24;32.80;;;17.80;;
3177;SDS011;38141;42.666;23.344;2023-12-22T01:50:52;31.63;;;17.80;;
3177;SDS011;38141;42.666;23.344;2023-12-22T01:53:21;30.77;;;18.07;;
3177;SDS011;38141;42.666;23.344;2023-12-22T01:55:50;30.93;;;17.90;;
3177;SDS011;38141;42.666;23.344;2023-12-22T01:58:19;30.00;;;17.20;;
3177;SDS011;38141;42.666;23.344;2023-12-22T02:00:46;34.33;;;18.17;;
3177;SDS011;38141;42.666;23.344;2023-12-22T02:03:13;28.27;;;17.77;;
3177;SDS011;38141;42.666;23.344;2023-12-22T02:05:43;31.30;;;19.10;;
3177;SDS011;38141;42.666;23.344;2023-12-22T02:08:11;32.93;;;20.83;;
3177;SDS011;38141;42.666;23.344;2023-12-22T02:10:38;30.80;;;16.87;;
3177;SDS011;38141;42.666;23.344;2023-12-22T02:13:05;34.90;;;18.23;;
3177;SDS011;38141;42.666;23.344;2023-12-22T02:15:32;29.80;;;17.90;;
3177;SDS011;38141;42.666;23.344;2023-12-22T02:18:01;28.97;;;16.73;;
3177;SDS011;38141;42.666;23.344;2023-12-22T02:20:33;27.23;;;16.97;;
3177;SDS011;38141;42.666;23.344;2023-12-22T02:23:02;28.40;;;17.70;;
3177;SDS011;38141;42.666;23.344;2023-12-22T02:25:29;30.53;;;17.80;;
3177;SDS011;38141;42.666;23.344;2023-12-22T02:27:57;32.10;;;17.63;;
3177;SDS011;38141;42.666;23.344;2023-12-22T02:30:30;29.00;;;16.90;;
3177;SDS011;38141;42.666;23.344;2023-12-22T02:33:01;27.20;;;16.50;;
3177;SDS011;38141;42.666;23.344;2023-12-22T02:35:32;28.37;;;16.37;;
3177;SDS011;38141;42.666;23.344;2023-12-22T02:38:03;27.23;;;16.60;;
3177;SDS011;38141;42.666;23.344;2023-12-22T02:40:31;28.63;;;16.67;;
3177;SDS011;38141;42.666;23.344;2023-12-22T02:43:00;30.03;;;16.63;;
3177;SDS011;38141;42.666;23.344;2023-12-22T02:45:28;28.20;;;16.13;;
3177;SDS011;38141;42.666;23.344;2023-12-22T02:47:55;30.90;;;17.10;;
3177;SDS011;38141;42.666;23.344;2023-12-22T02:50:22;31.37;;;18.13;;
3177;SDS011;38141;42.666;23.344;2023-12-22T02:52:49;27.90;;;17.90;;
3177;SDS011;38141;42.666;23.344;2023-12-22T02:55:18;37.53;;;18.10;;
3177;SDS011;38141;42.666;23.344;2023-12-22T02:57:45;31.10;;;18.07;;
3177;SDS011;38141;42.666;23.344;2023-12-22T03:00:12;27.67;;;17.60;;
3177;SDS011;38141;42.666;23.344;2023-12-22T03:02:39;29.87;;;16.90;;
3177;SDS011;38141;42.666;23.344;2023-12-22T03:05:06;37.23;;;19.43;;
3177;SDS011;38141;42.666;23.344;2023-12-22T03:07:33;29.80;;;17.30;;
3177;SDS011;38141;42.666;23.344;2023-12-22T03:10:01;32.80;;;18.33;;
3177;SDS011;38141;42.666;23.344;2023-12-22T03:12:29;33.40;;;18.30;;
3177;SDS011;38141;42.666;23.344;2023-12-22T03:14:56;29.70;;;17.83;;
3177;SDS011;38141;42.666;23.344;2023-12-22T03:17:23;36.77;;;19.73;;
3177;SDS011;38141;42.666;23.344;2023-12-22T03:19:50;33.90;;;18.70;;
3177;SDS011;38141;42.666;23.344;2023-12-22T03:22:17;34.93;;;18.53;;
3177;SDS011;38141;42.666;23.344;2023-12-22T03:24:44;35.40;;;18.60;;
3177;SDS011;38141;42.666;23.344;2023-12-22T03:27:10;33.23;;;21.17;;
3177;SDS011;38141;42.666;23.344;2023-12-22T03:29:42;31.23;;;20.30;;
3177;SDS011;38141;42.666;23.344;2023-12-22T03:32:09;40.70;;;21.27;;
3177;SDS011;38141;42.666;23.344;2023-12-22T03:34:36;36.90;;;20.27;;
3177;SDS011;38141;42.666;23.344;2023-12-22T03:37:03;39.40;;;20.80;;
3177;SDS011;38141;42.666;23.344;2023-12-22T03:39:30;43.50;;;20.80;;
3177;SDS011;38141;42.666;23.344;2023-12-22T03:41:57;37.17;;;21.30;;
3177;SDS011;38141;42.666;23.344;2023-12-22T03:44:24;35.50;;;21.40;;
3177;SDS011;38141;42.666;23.344;2023-12-22T03:46:52;37.10;;;19.73;;
3177;SDS011;38141;42.666;23.344;2023-12-22T03:49:19;38.50;;;21.07;;
3177;SDS011;38141;42.666;23.344;2023-12-22T03:51:46;36.20;;;20.60;;
3177;SDS011;38141;42.666;23.344;2023-12-22T03:54:13;38.73;;;20.27;;
3177;SDS011;38141;42.666;23.344;2023-12-22T03:56:42;37.63;;;19.63;;
3177;SDS011;38141;42.666;23.344;2023-12-22T03:59:09;34.57;;;19.10;;
3177;SDS011;38141;42.666;23.344;2023-12-22T04:01:36;28.67;;;18.37;;
3177;SDS011;38141;42.666;23.344;2023-12-22T04:04:05;31.57;;;18.03;;
3177;SDS011;38141;42.666;23.344;2023-12-22T04:06:32;29.13;;;18.40;;
3177;SDS011;38141;42.666;23.344;2023-12-22T04:09:00;33.77;;;18.67;;
3177;SDS011;38141;42.666;23.344;2023-12-22T04:11:27;33.73;;;21.47;;
3177;SDS011;38141;42.666;23.344;2023-12-22T04:13:54;31.03;;;18.73;;
3177;SDS011;38141;42.666;23.344;2023-12-22T04:16:21;36.07;;;20.53;;
3177;SDS011;38141;42.666;23.344;2023-12-22T04:18:48;29.90;;;17.43;;
3177;SDS011;38141;42.666;23.344;2023-12-22T04:21:17;37.77;;;20.23;;
3177;SDS011;38141;42.666;23.344;2023-12-22T04:23:44;35.53;;;18.33;;
3177;SDS011;38141;42.666;23.344;2023-12-22T04:26:11;36.67;;;19.80;;
3177;SDS011;38141;42.666;23.344;2023-12-22T04:28:38;31.10;;;18.83;;
3177;SDS011;38141;42.666;23.344;2023-12-22T04:31:05;35.17;;;19.77;;
3177;SDS011;38141;42.666;23.344;2023-12-22T04:33:32;32.53;;;18.57;;
3177;SDS011;38141;42.666;23.344;2023-12-22T04:35:58;35.50;;;20.23;;
3177;SDS011;38141;42.666;23.344;2023-12-22T04:38:26;31.10;;;18.13;;
3177;SDS011;38141;42.666;23.344;2023-12-22T04:40:54;30.00;;;18.23;;
3177;SDS011;38141;42.666;23.344;2023-12-22T04:43:21;30.63;;;17.70;;
3177;SDS011;38141;42.666;23.344;2023-12-22T04:45:48;37.60;;;20.37;;
3177;SDS011;38141;42.666;23.344;2023-12-22T04:48:15;33.17;;;19.73;;
3177;SDS011;38141;42.666;23.344;2023-12-22T04:50:42;32.23;;;18.87;;
3177;SDS011;38141;42.666;23.344;2023-12-22T04:53:09;31.10;;;17.80;;
3177;SDS011;38141;42.666;23.344;2023-12-22T04:55:37;35.23;;;20.83;;
3177;SDS011;38141;42.666;23.344;2023-12-22T04:58:04;36.70;;;20.00;;
3177;SDS011;38141;42.666;23.344;2023-12-22T05:00:31;35.37;;;19.70;;
3177;SDS011;38141;42.666;23.344;2023-12-22T05:02:58;32.10;;;20.30;;
3177;SDS011;38141;42.666;23.344;2023-12-22T05:05:25;27.63;;;18.17;;
3177;SDS011;38141;42.666;23.344;2023-12-22T05:07:52;38.20;;;20.50;;
3177;SDS011;38141;42.666;23.344;2023-12-22T05:10:19;39.47;;;21.87;;
3177;SDS011;38141;42.666;23.344;2023-12-22T05:12:47;39.63;;;21.77;;
3177;SDS011;38141;42.666;23.344;2023-12-22T05:15:14;36.07;;;20.37;;
3177;SDS011;38141;42.666;23.344;2023-12-22T05:17:41;37.00;;;21.70;;
3177;SDS011;38141;42.666;23.344;2023-12-22T05:20:09;35.03;;;21.47;;
3177;SDS011;38141;42.666;23.344;2023-12-22T05:22:36;34.40;;;18.73;;
3177;SDS011;38141;42.666;23.344;2023-12-22T05:25:04;34.27;;;20.33;;
3177;SDS011;38141;42.666;23.344;2023-12-22T05:27:32;35.57;;;20.70;;
3177;SDS011;38141;42.666;23.344;2023-12-22T05:30:02;30.03;;;17.10;;
3177;SDS011;38141;42.666;23.344;2023-12-22T05:32:30;33.40;;;18.80;;
3177;SDS011;38141;42.666;23.344;2023-12-22T05:34:57;33.83;;;18.80;;
3177;SDS011;38141;42.666;23.344;2023-12-22T05:37:24;28.97;;;19.23;;
3177;SDS011;38141;42.666;23.344;2023-12-22T05:39:51;33.53;;;18.17;;
3177;SDS011;38141;42.666;23.344;2023-12-22T05:42:18;32.07;;;18.10;;
3177;SDS011;38141;42.666;23.344;2023-12-22T05:44:45;30.47;;;17.33;;
3177;SDS011;38141;42.666;23.344;2023-12-22T05:47:50;29.93;;;16.53;;
3177;SDS011;38141;42.666;23.344;2023-12-22T05:50:18;28.17;;;16.00;;
3177;SDS011;38141;42.666;23.344;2023-12-22T05:52:45;29.17;;;16.87;;
3177;SDS011;38141;42.666;23.344;2023-12-22T05:55:12;33.00;;;17.10;;
3177;SDS011;38141;42.666;23.344;2023-12-22T05:57:39;30.60;;;18.73;;
3177;SDS011;38141;42.666;23.344;2023-12-22T06:00:06;27.60;;;15.77;;
3177;SDS011;38141;42.666;23.344;2023-12-22T06:02:35;30.87;;;16.50;;
3177;SDS011;38141;42.666;23.344;2023-12-22T06:05:04;30.00;;;17.20;;
3177;SDS011;38141;42.666;23.344;2023-12-22T06:07:30;26.77;;;16.20;;
3177;SDS011;38141;42.666;23.344;2023-12-22T06:09:58;28.87;;;17.47;;
3177;SDS011;38141;42.666;23.344;2023-12-22T06:12:25;28.57;;;16.43;;
3177;SDS011;38141;42.666;23.344;2023-12-22T06:14:52;26.93;;;15.80;;
3177;SDS011;38141;42.666;23.344;2023-12-22T06:17:19;32.07;;;17.53;;
3177;SDS011;38141;42.666;23.344;2023-12-22T06:19:46;25.43;;;16.60;;
3177;SDS011;38141;42.666;23.344;2023-12-22T06:22:14;27.53;;;15.93;;
3177;SDS011;38141;42.666;23.344;2023-12-22T06:24:41;27.40;;;15.47;;
3177;SDS011;38141;42.666;23.344;2023-12-22T06:27:08;29.90;;;16.70;;
3177;SDS011;38141;42.666;23.344;2023-12-22T06:29:35;28.73;;;16.03;;
3177;SDS011;38141;42.666;23.344;2023-12-22T06:32:02;28.93;;;17.03;;
3177;SDS011;38141;42.666;23.344;2023-12-22T06:34:31;29.60;;;17.10;;
3177;SDS011;38141;42.666;23.344;2023-12-22T06:36:58;30.00;;;17.00;;
3177;SDS011;38141;42.666;23.344;2023-12-22T06:39:26;31.97;;;17.90;;
3177;SDS011;38141;42.666;23.344;2023-12-22T06:41:53;28.07;;;17.80;;
3177;SDS011;38141;42.666;23.344;2023-12-22T06:44:20;36.47;;;19.10;;
3177;SDS011;38141;42.666;23.344;2023-12-22T06:46:47;31.23;;;18.20;;
3177;SDS011;38141;42.666;23.344;2023-12-22T06:49:14;30.17;;;18.37;;
3177;SDS011;38141;42.666;23.344;2023-12-22T06:51:41;37.67;;;20.17;;
3177;SDS011;38141;42.666;23.344;2023-12-22T06:54:08;30.07;;;18.20;;
3177;SDS011;38141;42.666;23.344;2023-12-22T06:56:37;28.87;;;16.20;;
3177;SDS011;38141;42.666;23.344;2023-12-22T06:59:05;27.33;;;17.70;;
3177;SDS011;38141;42.666;23.344;2023-12-22T07:01:33;29.23;;;18.53;;
3177;SDS011;38141;42.666;23.344;2023-12-22T07:04:01;34.50;;;22.37;;
3177;SDS011;38141;42.666;23.344;2023-12-22T07:06:30;36.30;;;20.67;;
3177;SDS011;38141;42.666;23.344;2023-12-22T07:11:58;30.50;;;18.90;;
3177;SDS011;38141;42.666;23.344;2023-12-22T07:14:26;33.70;;;23.00;;
3177;SDS011;38141;42.666;23.344;2023-12-22T07:16:53;33.40;;;18.10;;
3177;SDS011;38141;42.666;23.344;2023-12-22T07:19:20;27.73;;;16.70;;
3177;SDS011;38141;42.666;23.344;2023-12-22T07:21:47;44.33;;;26.73;;
3177;SDS011;38141;42.666;23.344;2023-12-22T07:24:14;31.90;;;18.07;;
3177;SDS011;38141;42.666;23.344;2023-12-22T07:26:41;48.57;;;26.30;;
3177;SDS011;38141;42.666;23.344;2023-12-22T07:29:10;28.80;;;19.13;;
3177;SDS011;38141;42.666;23.344;2023-12-22T07:31:37;34.33;;;18.53;;
3177;SDS011;38141;42.666;23.344;2023-12-22T07:34:05;29.70;;;18.10;;
3177;SDS011;38141;42.666;23.344;2023-12-22T07:36:31;30.73;;;20.70;;
3177;SDS011;38141;42.666;23.344;2023-12-22T07:38:58;33.30;;;18.70;;
3177;SDS011;38141;42.666;23.344;2023-12-22T07:41:26;32.63;;;18.87;;
3177;SDS011;38141;42.666;23.344;2023-12-22T07:43:53;33.40;;;20.60;;
3177;SDS011;38141;42.666;23.344;2023-12-22T07:46:21;31.37;;;20.33;;
3177;SDS011;38141;42.666;23.344;2023-12-22T07:48:48;32.77;;;20.57;;
3177;SDS011;38141;42.666;23.344;2023-12-22T07:51:15;43.00;;;24.67;;
3177;SDS011;38141;42.666;23.344;2023-12-22T07:53:42;33.30;;;20.80;;
3177;SDS011;38141;42.666;23.344;2023-12-22T07:56:09;33.23;;;18.73;;
3177;SDS011;38141;42.666;23.344;2023-12-22T07:58:37;37.40;;;21.10;;
3177;SDS011;38141;42.666;23.344;2023-12-22T08:01:04;30.10;;;18.20;;
3177;SDS011;38141;42.666;23.344;2023-12-22T08:03:33;27.77;;;17.40;;
3177;SDS011;38141;42.666;23.344;2023-12-22T08:06:00;30.43;;;19.00;;
3177;SDS011;38141;42.666;23.344;2023-12-22T08:08:27;30.10;;;17.40;;
3177;SDS011;38141;42.666;23.344;2023-12-22T08:10:54;32.50;;;21.87;;
3177;SDS011;38141;42.666;23.344;2023-12-22T08:13:21;28.27;;;18.90;;
3177;SDS011;38141;42.666;23.344;2023-12-22T08:15:48;53.37;;;27.97;;
3177;SDS011;38141;42.666;23.344;2023-12-22T08:18:15;29.30;;;18.90;;
3177;SDS011;38141;42.666;23.344;2023-12-22T08:20:43;31.57;;;18.40;;
3177;SDS011;38141;42.666;23.344;2023-12-22T08:23:13;30.47;;;18.00;;
3177;SDS011;38141;42.666;23.344;2023-12-22T08:25:40;32.33;;;19.50;;
3177;SDS011;38141;42.666;23.344;2023-12-22T08:28:07;45.03;;;24.97;;
3177;SDS011;38141;42.666;23.344;2023-12-22T08:30:34;65.30;;;31.93;;
3177;SDS011;38141;42.666;23.344;2023-12-22T08:33:04;66.10;;;29.63;;
3177;SDS011;38141;42.666;23.344;2023-12-22T08:35:31;64.00;;;33.90;;
3177;SDS011;38141;42.666;23.344;2023-12-22T08:38:01;43.23;;;25.80;;
3177;SDS011;38141;42.666;23.344;2023-12-22T08:40:28;41.93;;;23.77;;
3177;SDS011;38141;42.666;23.344;2023-12-22T08:42:58;42.90;;;24.60;;
3177;SDS011;38141;42.666;23.344;2023-12-22T08:45:26;43.43;;;24.70;;
3177;SDS011;38141;42.666;23.344;2023-12-22T08:47:54;46.93;;;26.97;;
3177;SDS011;38141;42.666;23.344;2023-12-22T08:50:21;48.13;;;27.27;;
3177;SDS011;38141;42.666;23.344;2023-12-22T08:52:49;49.77;;;29.20;;
3177;SDS011;38141;42.666;23.344;2023-12-22T08:55:18;49.10;;;29.67;;
3177;SDS011;38141;42.666;23.344;2023-12-22T08:57:45;46.40;;;28.50;;
3177;SDS011;38141;42.666;23.344;2023-12-22T09:00:15;45.33;;;28.03;;
3177;SDS011;38141;42.666;23.344;2023-12-22T09:02:43;50.70;;;29.10;;
3177;SDS011;38141;42.666;23.344;2023-12-22T09:05:13;44.10;;;24.30;;
3177;SDS011;38141;42.666;23.344;2023-12-22T09:07:45;46.67;;;26.13;;
3177;SDS011;38141;42.666;23.344;2023-12-22T09:10:12;39.80;;;23.23;;
3177;SDS011;38141;42.666;23.344;2023-12-22T09:12:41;60.10;;;33.93;;
3177;SDS011;38141;42.666;23.344;2023-12-22T09:15:10;61.70;;;34.23;;
3177;SDS011;38141;42.666;23.344;2023-12-22T09:17:38;43.10;;;24.67;;
3177;SDS011;38141;42.666;23.344;2023-12-22T09:20:07;51.43;;;27.70;;
3177;SDS011;38141;42.666;23.344;2023-12-22T09:22:34;44.73;;;29.37;;
3177;SDS011;38141;42.666;23.344;2023-12-22T09:25:01;52.63;;;32.93;;
3177;SDS011;38141;42.666;23.344;2023-12-22T09:27:28;47.20;;;29.27;;
3177;SDS011;38141;42.666;23.344;2023-12-22T09:29:57;45.53;;;26.53;;
3177;SDS011;38141;42.666;23.344;2023-12-22T09:32:24;38.83;;;22.33;;
3177;SDS011;38141;42.666;23.344;2023-12-22T09:34:51;38.50;;;22.20;;
3177;SDS011;38141;42.666;23.344;2023-12-22T09:37:20;33.53;;;21.17;;
3177;SDS011;38141;42.666;23.344;2023-12-22T09:39:47;34.03;;;20.70;;
3177;SDS011;38141;42.666;23.344;2023-12-22T09:42:14;38.03;;;20.77;;
3177;SDS011;38141;42.666;23.344;2023-12-22T09:44:41;34.07;;;20.20;;
3177;SDS011;38141;42.666;23.344;2023-12-22T09:47:10;32.33;;;19.57;;
3177;SDS011;38141;42.666;23.344;2023-12-22T09:49:38;36.77;;;20.80;;
3177;SDS011;38141;42.666;23.344;2023-12-22T09:52:07;36.50;;;20.87;;
3177;SDS011;38141;42.666;23.344;2023-12-22T09:54:36;33.97;;;20.60;;
3177;SDS011;38141;42.666;23.344;2023-12-22T09:57:04;37.33;;;20.60;;
3177;SDS011;38141;42.666;23.344;2023-12-22T09:59:31;34.43;;;20.87;;
3177;SDS011;38141;42.666;23.344;2023-12-22T10:01:59;38.00;;;21.47;;
3177;SDS011;38141;42.666;23.344;2023-12-22T10:04:32;36.97;;;21.13;;
3177;SDS011;38141;42.666;23.344;2023-12-22T10:06:59;34.80;;;21.17;;
3177;SDS011;38141;42.666;23.344;2023-12-22T10:09:29;32.07;;;20.30;;
3177;SDS011;38141;42.666;23.344;2023-12-22T10:11:56;33.60;;;20.83;;
3177;SDS011;38141;42.666;23.344;2023-12-22T10:14:25;43.90;;;26.57;;
3177;SDS011;38141;42.666;23.344;2023-12-22T10:16:53;36.93;;;23.60;;
3177;SDS011;38141;42.666;23.344;2023-12-22T10:19:21;34.60;;;21.37;;
3177;SDS011;38141;42.666;23.344;2023-12-22T10:21:49;41.03;;;25.30;;
3177;SDS011;38141;42.666;23.344;2023-12-22T10:27:07;44.70;;;24.97;;
3177;SDS011;38141;42.666;23.344;2023-12-22T10:29:35;38.23;;;24.77;;
3177;SDS011;38141;42.666;23.344;2023-12-22T10:32:02;44.73;;;23.80;;
3177;SDS011;38141;42.666;23.344;2023-12-22T10:34:30;41.50;;;23.87;;
3177;SDS011;38141;42.666;23.344;2023-12-22T10:36:59;37.37;;;23.67;;
3177;SDS011;38141;42.666;23.344;2023-12-22T10:39:30;35.77;;;22.27;;
3177;SDS011;38141;42.666;23.344;2023-12-22T10:41:59;41.47;;;24.60;;
3177;SDS011;38141;42.666;23.344;2023-12-22T10:44:27;49.37;;;24.97;;
3177;SDS011;38141;42.666;23.344;2023-12-22T10:46:57;37.33;;;24.03;;
3177;SDS011;38141;42.666;23.344;2023-12-22T10:49:25;45.93;;;25.43;;
3177;SDS011;38141;42.666;23.344;2023-12-22T10:51:56;43.47;;;23.53;;
3177;SDS011;38141;42.666;23.344;2023-12-22T10:54:25;36.63;;;22.60;;
3177;SDS011;38141;42.666;23.344;2023-12-22T10:56:53;38.73;;;22.83;;
3177;SDS011;38141;42.666;23.344;2023-12-22T10:59:25;41.03;;;23.57;;
3177;SDS011;38141;42.666;23.344;2023-12-22T11:01:56;34.80;;;22.13;;
3177;SDS011;38141;42.666;23.344;2023-12-22T11:04:25;36.57;;;22.20;;
3177;SDS011;38141;42.666;23.344;2023-12-22T11:06:57;34.80;;;23.00;;
3177;SDS011;38141;42.666;23.344;2023-12-22T11:09:30;36.00;;;22.30;;
3177;SDS011;38141;42.666;23.344;2023-12-22T11:11:58;29.13;;;19.70;;
3177;SDS011;38141;42.666;23.344;2023-12-22T11:14:30;34.23;;;20.90;;
3177;SDS011;38141;42.666;23.344;2023-12-22T11:17:01;34.43;;;22.03;;
3177;SDS011;38141;42.666;23.344;2023-12-22T11:19:30;30.67;;;19.10;;
3177;SDS011;38141;42.666;23.344;2023-12-22T11:22:03;21.57;;;14.33;;
3177;SDS011;38141;42.666;23.344;2023-12-22T11:24:34;22.93;;;13.93;;
3177;SDS011;38141;42.666;23.344;2023-12-22T11:27:06;17.43;;;10.10;;
3177;SDS011;38141;42.666;23.344;2023-12-22T11:29:35;14.00;;;8.60;;
3177;SDS011;38141;42.666;23.344;2023-12-22T11:32:04;9.53;;;7.03;;
3177;SDS011;38141;42.666;23.344;2023-12-22T11:34:33;9.00;;;6.37;;
3177;SDS011;38141;42.666;23.344;2023-12-22T11:37:06;11.77;;;7.37;;
3177;SDS011;38141;42.666;23.344;2023-12-22T11:39:36;11.93;;;6.40;;
3177;SDS011;38141;42.666;23.344;2023-12-22T11:42:04;9.93;;;6.63;;
3177;SDS011;38141;42.666;23.344;2023-12-22T11:44:33;9.97;;;7.17;;
3177;SDS011;38141;42.666;23.344;2023-12-22T11:47:04;10.80;;;7.80;;
3177;SDS011;38141;42.666;23.344;2023-12-22T11:49:32;9.13;;;6.27;;
3177;SDS011;38141;42.666;23.344;2023-12-22T11:52:09;6.23;;;4.47;;
3177;SDS011;38141;42.666;23.344;2023-12-22T11:54:48;4.50;;;3.10;;
3177;SDS011;38141;42.666;23.344;2023-12-22T11:57:29;4.20;;;3.03;;
3177;SDS011;38141;42.666;23.344;2023-12-22T11:59:58;2.60;;;2.40;;
3177;SDS011;38141;42.666;23.344;2023-12-22T12:02:33;2.90;;;2.57;;
3177;SDS011;38141;42.666;23.344;2023-12-22T12:05:03;4.70;;;3.30;;
3177;SDS011;38141;42.666;23.344;2023-12-22T12:07:36;3.53;;;2.70;;
3177;SDS011;38141;42.666;23.344;2023-12-22T12:10:06;4.53;;;2.40;;
3177;SDS011;38141;42.666;23.344;2023-12-22T12:12:36;2.50;;;2.13;;
3177;SDS011;38141;42.666;23.344;2023-12-22T12:15:07;2.73;;;2.30;;
3177;SDS011;38141;42.666;23.344;2023-12-22T12:17:38;2.33;;;1.77;;
3177;SDS011;38141;42.666;23.344;2023-12-22T12:20:07;2.50;;;2.07;;
3177;SDS011;38141;42.666;23.344;2023-12-22T12:22:36;3.13;;;2.40;;
3177;SDS011;38141;42.666;23.344;2023-12-22T12:25:10;2.90;;;2.30;;
3177;SDS011;38141;42.666;23.344;2023-12-22T12:27:37;2.30;;;2.10;;
3177;SDS011;38141;42.666;23.344;2023-12-22T12:30:10;3.00;;;2.27;;
3177;SDS011;38141;42.666;23.344;2023-12-22T12:32:39;2.30;;;1.80;;
3177;SDS011;38141;42.666;23.344;2023-12-22T12:35:09;2.70;;;1.90;;
3177;SDS011;38141;42.666;23.344;2023-12-22T12:37:36;3.03;;;2.10;;
3177;SDS011;38141;42.666;23.344;2023-12-22T12:40:04;3.03;;;2.10;;
3177;SDS011;38141;42.666;23.344;2023-12-22T12:42:37;4.17;;;2.53;;
3177;SDS011;38141;42.666;23.344;2023-12-22T12:45:05;4.30;;;2.90;;
3177;SDS011;38141;42.666;23.344;2023-12-22T12:47:33;2.47;;;1.97;;
3177;SDS011;38141;42.666;23.344;2023-12-22T12:50:00;2.80;;;2.20;;
3177;SDS011;38141;42.666;23.344;2023-12-22T12:52:28;2.73;;;2.00;;
3177;SDS011;38141;42.666;23.344;2023-12-22T12:54:55;3.40;;;2.23;;
3177;SDS011;38141;42.666;23.344;2023-12-22T12:57:25;3.20;;;2.27;;
3177;SDS011;38141;42.666;23.344;2023-12-22T12:59:52;3.70;;;2.17;;
3177;SDS011;38141;42.666;23.344;2023-12-22T13:02:19;3.80;;;2.17;;
3177;SDS011;38141;42.666;23.344;2023-12-22T13:04:47;4.63;;;2.30;;
3177;SDS011;38141;42.666;23.344;2023-12-22T13:07:23;2.80;;;2.13;;
3177;SDS011;38141;42.666;23.344;2023-12-22T13:09:52;2.37;;;2.17;;
3177;SDS011;38141;42.666;23.344;2023-12-22T13:12:22;2.67;;;2.30;;
3177;SDS011;38141;42.666;23.344;2023-12-22T13:14:52;4.43;;;2.07;;
3177;SDS011;38141;42.666;23.344;2023-12-22T13:17:25;3.10;;;2.33;;
3177;SDS011;38141;42.666;23.344;2023-12-22T13:19:55;3.87;;;2.67;;
3177;SDS011;38141;42.666;23.344;2023-12-22T13:22:23;3.30;;;2.30;;
3177;SDS011;38141;42.666;23.344;2023-12-22T13:24:54;4.20;;;2.53;;
3177;SDS011;38141;42.666;23.344;2023-12-22T13:27:23;4.83;;;3.07;;
3177;SDS011;38141;42.666;23.344;2023-12-22T13:29:51;3.20;;;2.57;;
3177;SDS011;38141;42.666;23.344;2023-12-22T13:32:19;3.87;;;2.87;;
3177;SDS011;38141;42.666;23.344;2023-12-22T13:34:50;3.03;;;2.73;;
3177;SDS011;38141;42.666;23.344;2023-12-22T13:37:17;2.97;;;2.67;;
3177;SDS011;38141;42.666;23.344;2023-12-22T13:39:45;3.47;;;2.57;;
3177;SDS011;38141;42.666;23.344;2023-12-22T13:42:15;4.77;;;2.87;;
3177;SDS011;38141;42.666;23.344;2023-12-22T13:44:43;4.60;;;3.10;;
3177;SDS011;38141;42.666;23.344;2023-12-22T13:47:14;3.47;;;2.90;;
3177;SDS011;38141;42.666;23.344;2023-12-22T13:49:46;6.50;;;3.00;;
3177;SDS011;38141;42.666;23.344;2023-12-22T13:52:27;3.73;;;2.50;;
3177;SDS011;38141;42.666;23.344;2023-12-22T13:55:00;4.23;;;2.90;;
3177;SDS011;38141;42.666;23.344;2023-12-22T13:57:28;3.77;;;2.77;;
3177;SDS011;38141;42.666;23.344;2023-12-22T13:59:55;3.40;;;2.47;;
3177;SDS011;38141;42.666;23.344;2023-12-22T14:02:27;3.30;;;2.67;;
3177;SDS011;38141;42.666;23.344;2023-12-22T14:04:54;5.37;;;2.73;;
3177;SDS011;38141;42.666;23.344;2023-12-22T14:07:24;4.20;;;3.00;;
3177;SDS011;38141;42.666;23.344;2023-12-22T14:09:51;3.27;;;2.30;;
3177;SDS011;38141;42.666;23.344;2023-12-22T14:12:19;3.80;;;2.53;;
3177;SDS011;38141;42.666;23.344;2023-12-22T14:14:48;4.23;;;2.80;;
3177;SDS011;38141;42.666;23.344;2023-12-22T14:17:17;2.23;;;1.97;;
3177;SDS011;38141;42.666;23.344;2023-12-22T14:19:46;2.77;;;2.27;;
3177;SDS011;38141;42.666;23.344;2023-12-22T14:22:14;3.40;;;2.10;;
3177;SDS011;38141;42.666;23.344;2023-12-22T14:24:42;3.80;;;2.00;;
3177;SDS011;38141;42.666;23.344;2023-12-22T14:27:12;3.30;;;2.57;;
3177;SDS011;38141;42.666;23.344;2023-12-22T14:29:43;4.23;;;2.57;;
3177;SDS011;38141;42.666;23.344;2023-12-22T14:32:10;6.27;;;2.83;;
3177;SDS011;38141;42.666;23.344;2023-12-22T14:34:37;3.63;;;2.40;;
3177;SDS011;38141;42.666;23.344;2023-12-22T14:37:09;4.30;;;2.50;;